Time;durP1;ratioP1;P1;durP2;ratioP2;P2;SDS_P1;SDS_P2;PMS_P1;PMS_P2;Temp;Humidity;BMP_temperature;BMP_pressure;BME280_temperature;BME280_humidity;BME280_pressure;Samples;Min_cycle;Max_cycle;Signal;HPM_P1;HPM_P2
2022/12/27 00:02:22;;;;;;;7.30;3.30;;;;;;;2.67;100.00;102181.28;5116054;28;20407;-37
2022/12/27 00:04:47;;;;;;;7.13;2.70;;;;;;;2.61;100.00;102181.03;5115913;28;20090;-38
2022/12/27 00:07:13;;;;;;;6.30;3.40;;;;;;;2.66;100.00;102190.28;5116043;28;20082;-37
2022/12/27 00:09:38;;;;;;;11.60;3.10;;;;;;;2.69;100.00;102189.19;5116641;28;20031;-38
2022/12/27 00:12:03;;;;;;;8.47;3.67;;;;;;;2.69;100.00;102190.00;5115679;28;20032;-37
2022/12/27 00:14:29;;;;;;;8.85;2.67;;;;;;;2.72;100.00;102195.03;5115913;28;20023;-38
2022/12/27 00:16:54;;;;;;;8.97;3.07;;;;;;;2.70;100.00;102191.69;5115957;28;20030;-37
2022/12/27 00:19:20;;;;;;;7.93;3.17;;;;;;;2.71;100.00;102189.84;5115895;28;20028;-37
2022/12/27 00:21:45;;;;;;;4.90;2.80;;;;;;;2.69;100.00;102191.84;5096988;28;20036;-37
2022/12/27 00:24:10;;;;;;;8.37;2.77;;;;;;;2.70;100.00;102186.34;5097379;28;20604;-37
2022/12/27 00:26:37;;;;;;;5.87;2.87;;;;;;;2.69;100.00;102194.50;5097641;28;20560;-37
2022/12/27 00:29:02;;;;;;;11.60;3.55;;;;;;;2.71;100.00;102196.03;5116185;28;20030;-38
2022/12/27 00:31:30;;;;;;;8.75;3.60;;;;;;;2.69;100.00;102198.03;5115519;28;20023;-37
2022/12/27 00:33:57;;;;;;;6.78;3.25;;;;;;;2.70;100.00;102199.69;5115823;28;20024;-38
2022/12/27 00:36:26;;;;;;;8.60;3.33;;;;;;;2.74;100.00;102208.28;5115712;28;20379;-37
2022/12/27 00:38:52;;;;;;;8.02;3.40;;;;;;;2.71;100.00;102204.06;5116222;28;20319;-37
2022/12/27 00:41:18;;;;;;;8.77;3.63;;;;;;;2.67;100.00;102189.31;5115408;28;20451;-37
2022/12/27 00:43:45;;;;;;;7.47;2.75;;;;;;;2.72;100.00;102210.22;5115561;28;20035;-37
2022/12/27 00:46:11;;;;;;;6.22;3.00;;;;;;;2.74;100.00;102209.09;5115191;28;20081;-37
2022/12/27 00:48:37;;;;;;;8.55;3.20;;;;;;;2.74;100.00;102209.09;5115824;28;20024;-37
2022/12/27 00:51:05;;;;;;;8.98;3.33;;;;;;;2.65;100.00;102199.31;5115431;28;20030;-38
2022/12/27 00:53:32;;;;;;;6.30;3.25;;;;;;;2.75;100.00;102208.13;5114804;28;20027;-37
2022/12/27 00:55:58;;;;;;;8.07;3.47;;;;;;;2.75;100.00;102218.81;5115118;28;20051;-37
2022/12/27 00:58:23;;;;;;;4.50;2.50;;;;;;;2.76;100.00;102209.78;5115343;28;20032;-37
2022/12/27 01:00:50;;;;;;;7.55;3.10;;;;;;;2.77;100.00;102227.50;5114967;28;20019;-37
2022/12/27 01:03:15;;;;;;;;;;;;;;;2.80;100.00;102218.38;5115298;28;20074;-37
2022/12/27 01:05:40;;;;;;;8.15;2.97;;;;;;;2.73;100.00;102218.13;5114922;28;20339;-38
2022/12/27 01:08:06;;;;;;;7.87;3.40;;;;;;;2.75;100.00;102226.81;5114911;28;20039;-37
2022/12/27 01:10:32;;;;;;;13.33;3.30;;;;;;;2.73;100.00;102230.59;5114820;28;20058;-37
2022/12/27 01:13:00;;;;;;;8.45;3.78;;;;;;;2.65;100.00;102219.81;5114839;28;20027;-37
2022/12/27 01:15:26;;;;;;;7.72;3.08;;;;;;;2.72;100.00;102232.44;5114729;28;20460;-37
2022/12/27 01:17:51;;;;;;;8.25;2.85;;;;;;;2.59;100.00;102207.91;5114946;28;20036;-37
2022/12/27 01:20:16;;;;;;;9.20;3.53;;;;;;;2.64;100.00;102220.81;5114396;28;20508;-37
2022/12/27 01:22:42;;;;;;;6.93;2.90;;;;;;;2.56;100.00;102210.84;5114895;28;20023;-37
2022/12/27 01:25:07;;;;;;;6.50;2.93;;;;;;;2.62;100.00;102228.97;5114857;28;20024;-37
2022/12/27 01:27:33;;;;;;;8.70;3.10;;;;;;;2.62;100.00;102231.63;5114539;28;20036;-37
2022/12/27 01:29:58;;;;;;;7.70;3.00;;;;;;;2.67;100.00;102245.38;5114785;28;20057;-37
2022/12/27 01:32:23;;;;;;;5.97;3.23;;;;;;;2.61;100.00;102240.63;5113666;28;20059;-37
2022/12/27 01:34:49;;;;;;;7.17;2.97;;;;;;;2.66;100.00;102251.72;5114414;28;20031;-37
2022/12/27 01:37:15;;;;;;;7.30;3.22;;;;;;;2.59;100.00;102242.63;5113904;28;20038;-37
2022/12/27 01:39:40;;;;;;;6.97;3.27;;;;;;;2.67;100.00;102260.56;5096827;28;20043;-37
2022/12/27 01:44:58;;;;;;;7.22;2.75;;;;;;;2.61;100.00;102251.31;5114474;28;20035;-37
2022/12/27 01:47:36;;;;;;;7.57;2.63;;;;;;;2.68;100.00;102272.94;5114872;28;20027;-37
2022/12/27 01:50:07;;;;;;;7.22;3.03;;;;;;;2.66;100.00;102267.75;5114372;28;20031;-38
2022/12/27 01:52:46;;;;;;;12.30;3.95;;;;;;;2.64;100.00;102272.41;5113825;28;20038;-37
2022/12/27 01:55:28;;;;;;;7.88;2.92;;;;;;;2.68;100.00;102278.28;5114062;28;20035;-37
2022/12/27 01:58:00;;;;;;;8.07;3.10;;;;;;;2.68;100.00;102273.78;5113796;28;20024;-37
2022/12/27 02:00:25;;;;;;;12.68;3.33;;;;;;;2.67;100.00;102281.94;5113998;28;20050;-37
2022/12/27 02:02:51;;;;;;;6.93;2.97;;;;;;;2.68;100.00;102283.63;5113819;28;20063;-37
2022/12/27 02:05:18;;;;;;;;;;;;;;;2.71;100.00;102286.03;5114730;28;20020;-37
2022/12/27 02:07:53;;;;;;;7.80;3.10;;;;;;;2.72;100.00;102290.38;5114080;28;19918;-37
2022/12/27 02:10:19;;;;;;;8.85;3.20;;;;;;;2.78;100.00;102290.66;5095567;28;20043;-38
2022/12/27 02:12:44;;;;;;;8.30;3.33;;;;;;;2.76;100.00;102292.59;5114140;28;20054;-37
2022/12/27 02:15:10;;;;;;;11.15;3.78;;;;;;;2.72;100.00;102285.03;5114192;28;20027;-38
2022/12/27 02:17:35;;;;;;;9.23;2.97;;;;;;;2.73;100.00;102278.69;5114321;28;20020;-37
2022/12/27 02:20:11;;;;;;;8.53;3.00;;;;;;;2.79;100.00;102286.97;5114201;28;20030;-38
2022/12/27 02:26:05;;;;;;;8.05;2.80;;;;;;;2.75;100.00;102285.59;5113885;28;20411;-37
2022/12/27 02:29:10;;;;;;;11.68;3.17;;;;;;;2.77;100.00;102294.28;5114028;28;20023;-37
2022/12/27 02:31:42;;;;;;;11.30;3.08;;;;;;;2.77;100.00;102299.63;5101966;28;20031;-38
2022/12/27 02:34:15;;;;;;;10.48;2.83;;;;;;;2.75;100.00;102287.41;5113738;28;20106;-37
2022/12/27 02:36:44;;;;;;;7.30;2.70;;;;;;;2.72;100.00;102291.19;5113666;28;20053;-37
2022/12/27 02:39:11;;;;;;;9.00;3.10;;;;;;;2.67;100.00;102284.63;5114148;28;20063;-38
2022/12/27 02:53:03;;;;;;;9.93;3.72;;;;;;;2.73;100.00;102305.41;5120093;28;20395;-37
2022/12/27 02:59:03;;;;;;;10.77;3.58;;;;;;;2.70;100.00;102297.69;5120313;28;20153;-37
2022/12/27 03:05:05;;;;;;;6.60;2.67;;;;;;;2.73;100.00;102300.94;5120260;28;20176;-37
2022/12/27 03:07:48;;;;;;;8.07;2.75;;;;;;;2.74;100.00;102302.59;5120658;28;20451;-37
2022/12/27 03:16:34;;;;;;;9.75;3.15;;;;;;;2.77;100.00;102296.97;5120398;28;20068;-37
2022/12/27 03:27:42;;;;;;;8.00;2.42;;;;;;;2.71;100.00;102283.34;5104412;28;20070;-38
2022/12/27 03:33:14;;;;;;;7.22;2.55;;;;;;;2.84;100.00;102318.63;5119617;28;20517;-36
2022/12/27 03:38:01;;;;;;;8.20;3.17;;;;;;;2.86;100.00;102319.28;5119228;28;20028;-37
2022/12/27 03:38:45;;;;;;;7.32;3.00;;;;;;;2.86;100.00;102326.47;5119198;28;20035;-36
2022/12/27 03:44:22;;;;;;;8.77;2.83;;;;;;;2.86;100.00;102334.50;5120149;28;20088;-36
2022/12/27 03:46:46;;;;;;;7.20;2.97;;;;;;;2.92;100.00;102355.28;5119405;28;20036;-37
2022/12/27 03:49:23;;;;;;;10.15;2.60;;;;;;;2.96;100.00;102324.63;5120174;28;20128;-36
2022/12/27 03:51:56;;;;;;;8.05;3.00;;;;;;;2.99;100.00;102319.00;5119526;28;20064;-36
2022/12/27 03:54:32;;;;;;;9.57;3.00;;;;;;;2.80;100.00;102291.34;5119568;28;20023;-36
2022/12/27 03:57:01;;;;;;;10.98;3.15;;;;;;;2.83;100.00;102299.06;5115965;28;20114;-36
2022/12/27 03:59:26;;;;;;;9.13;3.20;;;;;;;3.02;100.00;102330.22;5115945;28;20024;-36
2022/12/27 04:01:52;;;;;;;12.07;3.78;;;;;;;3.03;100.00;102339.09;5116328;28;20053;-37
2022/12/27 04:04:17;;;;;;;10.57;3.20;;;;;;;2.89;100.00;102311.00;5116465;28;20142;-36
2022/12/27 04:06:43;;;;;;;10.63;3.30;;;;;;;3.03;100.00;102347.13;5115702;28;20024;-37
2022/12/27 04:36:29;;;;;;;8.60;3.08;;;;;;;2.86;100.00;102339.84;5115335;28;20066;-37
2022/12/27 04:38:54;;;;;;;7.30;2.50;;;;;;;2.82;100.00;102340.09;5115272;28;20059;-37
2022/12/27 04:55:25;;;;;;;7.40;2.88;;;;;;;2.86;100.00;102355.88;5115727;28;20086;-37
2022/12/27 04:57:51;;;;;;;8.07;2.33;;;;;;;2.82;100.00;102340.09;5115372;28;20027;-36
2022/12/27 05:03:05;;;;;;;6.57;2.40;;;;;;;2.98;100.00;102362.75;5115595;28;20007;-36
2022/12/27 05:05:31;;;;;;;4.65;1.83;;;;;;;3.04;100.00;102367.50;5115226;28;20024;-36
2022/12/27 05:16:08;;;;;;;9.35;2.65;;;;;;;3.05;100.00;102361.16;5114777;28;20038;-36
2022/12/27 05:18:34;;;;;;;10.57;2.97;;;;;;;3.00;100.00;102347.41;5115226;28;20111;-36
2022/12/27 05:21:04;;;;;;;11.40;3.30;;;;;;;2.92;100.00;102353.44;5114292;28;20102;-36
2022/12/27 05:26:23;;;;;;;7.60;2.55;;;;;;;2.90;100.00;102351.94;5114824;28;20050;-36
2022/12/27 05:28:51;;;;;;;8.95;3.00;;;;;;;2.96;100.00;102370.88;5114984;28;20361;-36
2022/12/27 05:31:17;;;;;;;8.05;3.50;;;;;;;2.93;100.00;102367.66;5114322;28;20085;-36
2022/12/27 05:33:42;;;;;;;11.25;3.55;;;;;;;2.86;100.00;102366.56;5114584;28;20032;-36
2022/12/27 05:36:08;;;;;;;8.00;2.80;;;;;;;2.85;100.00;102371.06;5114769;28;20031;-37
2022/12/27 05:38:34;;;;;;;9.73;2.92;;;;;;;2.88;100.00;102378.81;5114154;28;20023;-37
2022/12/27 05:41:00;;;;;;;11.27;3.50;;;;;;;2.89;100.00;102387.66;5114498;28;20027;-37
2022/12/27 05:43:27;;;;;;;7.55;2.55;;;;;;;2.88;100.00;102401.97;5114218;28;20032;-37
2022/12/27 05:45:53;;;;;;;10.20;3.20;;;;;;;2.80;100.00;102395.53;5113834;28;20089;-36
2022/12/27 05:48:18;;;;;;;;;;;;;;;2.91;100.00;102407.03;5115130;28;20028;-36
2022/12/27 05:50:44;;;;;;;9.18;2.72;;;;;;;2.89;100.00;102419.72;5113791;28;19907;-37
2022/12/27 05:53:10;;;;;;;7.53;2.53;;;;;;;2.84;100.00;102401.44;5114326;28;20032;-37
2022/12/27 05:55:35;;;;;;;8.48;2.55;;;;;;;2.88;100.00;102401.97;5113961;28;20175;-36
2022/12/27 05:58:00;;;;;;;8.50;2.40;;;;;;;2.93;100.00;102399.72;5114161;28;20028;-37
2022/12/27 06:00:26;;;;;;;5.70;1.97;;;;;;;3.04;100.00;102415.63;5113643;28;20111;-36
2022/12/27 06:02:51;;;;;;;6.72;2.10;;;;;;;3.09;100.00;102410.69;5114045;28;20119;-36
2022/12/27 06:05:17;;;;;;;12.03;2.70;;;;;;;3.14;100.00;102407.56;5113931;28;20176;-37
2022/12/27 06:07:42;;;;;;;7.97;2.80;;;;;;;3.15;100.00;102393.22;5095130;28;20395;-36
2022/12/27 06:10:08;;;;;;;7.97;2.80;;;;;;;3.24;100.00;102403.88;5114384;28;20028;-36
2022/12/27 06:12:34;;;;;;;8.63;2.95;;;;;;;3.32;100.00;102396.00;5114169;28;20031;-36
2022/12/27 06:14:59;;;;;;;13.60;3.60;;;;;;;3.35;100.00;102401.03;5113738;28;20035;-36
2022/12/27 06:17:24;;;;;;;7.23;4.03;;;;;;;3.28;100.00;102391.94;5113244;28;20015;-37
2022/12/27 06:19:50;;;;;;;8.70;3.53;;;;;;;3.19;100.00;102390.13;5113140;28;20106;-36
2022/12/27 06:22:15;;;;;;;8.37;3.10;;;;;;;3.27;100.00;102413.44;5113177;28;20055;-37
2022/12/27 06:24:40;;;;;;;7.13;3.40;;;;;;;3.15;100.00;102399.41;5114063;28;20041;-36
2022/12/27 06:27:06;;;;;;;10.60;3.97;;;;;;;3.15;100.00;102420.78;5113249;28;20054;-36
2022/12/27 06:29:31;;;;;;;8.77;3.37;;;;;;;3.10;100.00;102423.91;5114188;28;20027;-36
2022/12/27 06:31:56;;;;;;;7.93;3.47;;;;;;;3.06;100.00;102422.50;5113517;28;20042;-37
2022/12/27 06:34:22;;;;;;;8.53;4.03;;;;;;;2.99;100.00;102426.72;5113393;28;20038;-37
2022/12/27 06:36:49;;;;;;;10.70;4.27;;;;;;;2.98;100.00;102422.38;5113620;28;20032;-37
2022/12/27 06:39:18;;;;;;;14.38;5.30;;;;;;;2.95;100.00;102437.84;5113649;28;20023;-37
2022/12/27 06:41:44;;;;;;;13.25;4.65;;;;;;;2.81;100.00;102415.91;5113267;28;20051;-37
2022/12/27 06:44:09;;;;;;;8.83;4.33;;;;;;;2.90;100.00;102429.41;5114000;28;20027;-37
2022/12/27 06:46:35;;;;;;;12.20;4.10;;;;;;;2.80;100.00;102422.25;5113445;28;20042;-37
2022/12/27 06:49:00;;;;;;;13.50;4.03;;;;;;;2.84;100.00;102431.66;5114033;28;20027;-37
2022/12/27 06:51:26;;;;;;;8.87;3.53;;;;;;;2.79;100.00;102433.94;5113135;28;20055;-37
2022/12/27 06:53:51;;;;;;;8.10;3.63;;;;;;;2.77;100.00;102429.69;5113751;28;20072;-37
2022/12/27 06:56:19;;;;;;;10.67;3.77;;;;;;;2.74;100.00;102440.69;5113252;28;20051;-37
2022/12/27 06:58:46;;;;;;;7.45;2.80;;;;;;;2.67;100.00;102437.72;5113186;28;20058;-37
2022/12/27 07:01:23;;;;;;;13.32;3.05;;;;;;;2.66;100.00;102440.53;5113904;28;20024;-37
2022/12/27 07:03:50;;;;;;;7.00;3.13;;;;;;;2.65;100.00;102445.03;5113128;28;20039;-37
2022/12/27 07:06:15;;;;;;;10.20;2.85;;;;;;;2.54;100.00;102427.31;5113015;28;20497;-37
2022/12/27 07:08:41;;;;;;;7.68;3.08;;;;;;;2.60;100.00;102439.25;5112750;28;20027;-37
2022/12/27 07:11:09;;;;;;;11.85;3.45;;;;;;;2.39;100.00;102418.03;5113524;28;20081;-37
2022/12/27 07:13:38;;;;;;;11.30;3.45;;;;;;;2.54;100.00;102442.50;5113568;28;20032;-37
2022/12/27 07:16:08;;;;;;;9.07;2.90;;;;;;;2.51;100.00;102453.44;5112956;28;20062;-37
2022/12/27 07:18:34;;;;;;;7.95;3.00;;;;;;;2.47;100.00;102452.88;5113292;28;20031;-37
2022/12/27 07:21:05;;;;;;;9.15;3.15;;;;;;;2.41;100.00;102441.91;5112627;28;20036;-37
2022/12/27 07:23:30;;;;;;;10.68;3.30;;;;;;;2.45;100.00;102456.69;5113085;28;20450;-37
2022/12/27 07:26:00;;;;;;;8.85;3.08;;;;;;;2.41;100.00;102452.59;5113346;28;20045;-37
2022/12/27 07:28:26;;;;;;;10.40;3.05;;;;;;;2.41;100.00;102455.25;5113245;28;20472;-37
2022/12/27 07:30:51;;;;;;;10.85;3.70;;;;;;;2.41;100.00;102460.59;5114361;28;20118;-37
2022/12/27 07:33:16;;;;;;;7.60;3.30;;;;;;;2.37;100.00;102462.69;5116705;28;20027;-37
2022/12/27 07:35:42;;;;;;;9.70;3.93;;;;;;;2.27;100.00;102456.50;5116587;28;20042;-37
2022/12/27 07:38:07;;;;;;;9.50;3.20;;;;;;;2.35;100.00;102461.16;5116332;28;20051;-37
2022/12/27 07:40:35;;;;;;;7.90;3.17;;;;;;;2.35;100.00;102469.16;5116742;28;20043;-37
2022/12/27 07:43:01;;;;;;;9.15;3.00;;;;;;;2.33;100.00;102471.97;5116928;28;20144;-37
2022/12/27 07:45:26;;;;;;;8.47;3.13;;;;;;;2.33;100.00;102475.47;5116298;28;20139;-37
2022/12/27 07:47:52;;;;;;;7.73;2.87;;;;;;;2.30;100.00;102467.75;5116360;28;20075;-37
2022/12/27 07:50:17;;;;;;;10.45;3.83;;;;;;;2.33;100.00;102474.63;5116473;28;20111;-37
2022/12/27 07:52:42;;;;;;;11.73;3.43;;;;;;;2.23;100.00;102465.75;5116956;28;20035;-37
2022/12/27 07:55:08;;;;;;;7.20;3.10;;;;;;;2.26;100.00;102470.81;5116977;28;20027;-37
2022/12/27 07:57:33;;;;;;;10.03;3.50;;;;;;;2.13;100.00;102459.56;5116348;28;20020;-37
2022/12/27 07:59:58;;;;;;;10.00;4.03;;;;;;;2.25;100.00;102486.00;5116703;28;20035;-37
2022/12/27 08:02:24;;;;;;;10.33;3.40;;;;;;;2.25;100.00;102486.00;5117176;28;20465;-37
2022/12/27 08:04:49;;;;;;;9.67;3.23;;;;;;;2.19;100.00;102473.19;5116297;28;20027;-37
2022/12/27 08:07:17;;;;;;;9.47;3.07;;;;;;;2.26;100.00;102490.34;5116742;28;20444;-37
2022/12/27 08:09:44;;;;;;;8.10;3.25;;;;;;;2.24;100.00;102484.28;5116042;28;20035;-37
2022/12/27 08:12:10;;;;;;;9.23;3.95;;;;;;;2.23;100.00;102476.44;5115626;28;20027;-37
2022/12/27 08:14:36;;;;;;;10.35;3.45;;;;;;;2.31;100.00;102488.13;5116150;28;20405;-37
2022/12/27 08:17:12;;;;;;;8.38;3.45;;;;;;;2.35;100.00;102496.72;5115706;28;20028;-37
2022/12/27 08:19:37;;;;;;;10.17;3.40;;;;;;;2.37;100.00;102501.91;5115938;28;20081;-37
2022/12/27 08:22:04;;;;;;;9.27;3.33;;;;;;;2.19;100.00;102470.50;5115848;28;20024;-37
2022/12/27 08:24:29;;;;;;;6.80;3.30;;;;;;;2.38;100.00;102496.41;5116018;28;20024;-37
2022/12/27 08:26:55;;;;;;;8.02;3.40;;;;;;;2.47;100.00;102510.78;5115543;28;20111;-37
2022/12/27 08:29:20;;;;;;;9.67;3.73;;;;;;;2.50;100.00;102507.84;5115702;28;20523;-37
2022/12/27 08:31:45;;;;;;;10.27;3.80;;;;;;;2.54;100.00;102503.94;5115631;28;20332;-37
2022/12/27 08:34:11;;;;;;;8.17;3.30;;;;;;;2.57;100.00;102512.47;5115655;28;20475;-37
2022/12/27 08:36:36;;;;;;;9.50;3.63;;;;;;;2.61;100.00;102517.56;5115275;28;20032;-37
2022/12/27 08:39:02;;;;;;;8.87;3.80;;;;;;;2.58;100.00;102508.81;5115477;28;20035;-37
2022/12/27 08:41:27;;;;;;;8.52;3.42;;;;;;;2.67;100.00;102517.00;5114825;28;20023;-37
2022/12/27 08:43:52;;;;;;;8.20;3.63;;;;;;;2.64;100.00;102496.78;5115075;28;20032;-37
2022/12/27 08:46:18;;;;;;;9.67;3.97;;;;;;;2.72;100.00;102504.91;5115362;28;20415;-37
2022/12/27 08:48:49;;;;;;;6.77;3.23;;;;;;;2.75;100.00;102499.31;5115614;28;20023;-37
2022/12/27 08:51:15;;;;;;;7.07;3.60;;;;;;;2.81;100.00;102503.25;5115340;28;20027;-37
2022/12/27 08:53:40;;;;;;;9.18;4.47;;;;;;;2.82;100.00;102492.41;5115999;28;20024;-37
2022/12/27 08:56:06;;;;;;;7.70;3.93;;;;;;;2.92;100.00;102494.22;5115178;28;20114;-37
2022/12/27 08:58:31;;;;;;;13.20;4.15;;;;;;;2.94;100.00;102493.13;5115424;28;20099;-37
2022/12/27 09:01:03;;;;;;;7.13;3.60;;;;;;;3.02;100.00;102497.75;5114604;28;20027;-37
2022/12/27 09:03:30;;;;;;;10.80;4.60;;;;;;;3.04;100.00;102498.47;5114970;28;20027;-37
2022/12/27 09:06:06;;;;;;;7.25;3.67;;;;;;;2.99;100.00;102482.84;5114973;28;20031;-37
2022/12/27 09:08:31;;;;;;;9.43;4.10;;;;;;;3.10;100.00;102489.88;5115026;28;20034;-37
2022/12/27 09:11:06;;;;;;;8.18;4.03;;;;;;;3.14;100.00;102488.63;5115032;28;20036;-37
2022/12/27 09:13:31;;;;;;;7.57;3.67;;;;;;;3.20;100.00;102492.53;5114926;28;20039;-37
2022/12/27 09:15:57;;;;;;;8.10;4.30;;;;;;;3.24;100.00;102499.31;5114407;28;20032;-37
2022/12/27 09:18:22;;;;;;;7.67;4.10;;;;;;;3.26;100.00;102500.81;5114897;28;20038;-37
2022/12/27 09:20:47;;;;;;;8.03;4.10;;;;;;;3.33;100.00;102501.13;5114463;28;20024;-37
2022/12/27 09:23:13;;;;;;;10.83;4.30;;;;;;;3.30;100.00;102488.88;5114733;28;20522;-37
2022/12/27 09:25:38;;;;;;;10.53;5.43;;;;;;;3.40;100.00;102501.38;5114938;28;20036;-37
2022/12/27 09:28:03;;;;;;;8.90;5.20;;;;;;;3.39;100.00;102497.88;5114872;28;20054;-36
2022/12/27 09:30:29;;;;;;;10.83;4.50;;;;;;;3.47;100.00;102515.88;5114604;28;20049;-36
2022/12/27 09:32:54;;;;;;;7.47;4.80;;;;;;;3.45;100.00;102509.81;5114760;28;20024;-36
2022/12/27 09:35:19;;;;;;;10.50;5.00;;;;;;;3.55;100.00;102516.81;5114542;28;20123;-36
2022/12/27 09:37:44;;;;;;;10.70;4.53;;;;;;;3.63;100.00;102507.25;5114527;28;20502;-36
2022/12/27 09:40:15;;;;;;;10.00;5.10;;;;;;;3.59;100.00;102506.69;5114087;28;20125;-37
2022/12/27 09:42:47;;;;;;;7.30;4.25;;;;;;;3.70;100.00;102519.88;5114884;28;20048;-37
2022/12/27 09:45:18;;;;;;;7.93;4.15;;;;;;;3.65;100.00;102515.97;5114873;28;20030;-37
2022/12/27 09:48:27;;;;;;;8.32;4.65;;;;;;;3.79;100.00;102521.69;5114753;28;20106;-37
2022/12/27 09:51:00;;;;;;;8.73;4.65;;;;;;;3.84;100.00;102519.44;5011844;28;20373;-37
2022/12/27 09:53:51;;;;;;;13.15;5.05;;;;;;;3.92;100.00;102517.88;5031356;28;20154;-37
2022/12/27 09:56:27;;;;;;;14.48;4.65;;;;;;;3.98;100.00;102511.91;4972871;28;20055;-37
2022/12/27 09:58:57;;;;;;;7.27;3.37;;;;;;;4.04;100.00;102511.31;4973153;28;20523;-37
2022/12/27 10:01:30;;;;;;;8.10;3.70;;;;;;;4.10;100.00;102510.75;4972415;28;20294;-37
2022/12/27 10:03:56;;;;;;;9.18;3.47;;;;;;;4.07;100.00;102506.53;4972444;28;20503;-37
2022/12/27 10:06:42;;;;;;;;;;;;;;;4.21;100.00;102510.56;4973675;28;20038;-37
2022/12/27 10:09:50;;;;;;;10.32;3.90;;;;;;;4.28;100.00;102522.34;4971900;28;19910;-37
2022/12/27 10:12:18;;;;;;;6.43;3.35;;;;;;;4.34;100.00;102527.13;4953435;29;20050;-37
2022/12/27 10:15:00;;;;;;;8.88;3.67;;;;;;;4.37;100.00;102512.59;4953003;29;20042;-37
2022/12/27 10:17:56;;;;;;;5.65;3.28;;;;;;;4.49;100.00;102524.78;4953268;29;20044;-37
2022/12/27 10:20:48;;;;;;;6.20;3.10;;;;;;;4.56;100.00;102527.72;4953367;29;20043;-37
2022/12/27 10:23:19;;;;;;;7.00;3.20;;;;;;;4.62;100.00;102525.25;4896257;29;20135;-37
2022/12/27 10:25:46;;;;;;;8.02;3.25;;;;;;;4.67;100.00;102524.81;4949907;29;20504;-37
2022/12/27 10:28:16;;;;;;;11.60;3.70;;;;;;;4.64;100.00;102501.00;4952930;29;20039;-37
2022/12/27 10:30:43;;;;;;;8.60;2.97;;;;;;;4.76;100.00;102515.03;4952778;29;20051;-37
2022/12/27 10:33:28;;;;;;;;;;;;;;;4.85;100.00;102514.13;4996101;28;20149;-37
2022/12/27 10:35:54;;;;;;;7.68;3.88;;;;;;;4.87;100.00;102515.63;5050496;28;19970;-37
2022/12/27 10:38:20;;;;;;;8.75;3.10;;;;;;;4.96;100.00;102519.22;5050789;28;20470;-37
2022/12/27 10:41:00;;;;;;;6.63;3.00;;;;;;;4.98;100.00;102508.34;5050588;28;20079;-37
2022/12/27 10:43:34;;;;;;;7.75;3.10;;;;;;;5.04;100.00;102522.00;5050858;28;20589;-37
2022/12/27 10:46:27;;;;;;;8.90;3.50;;;;;;;5.12;100.00;102524.78;5050907;28;20029;-37
2022/12/27 10:49:07;;;;;;;8.00;3.03;;;;;;;5.16;100.00;102523.44;5051244;28;20033;-37
2022/12/27 10:51:38;;;;;;;12.32;3.55;;;;;;;5.22;100.00;102527.38;5050077;28;20036;-37
2022/12/27 10:54:11;;;;;;;6.35;3.20;;;;;;;5.27;100.00;102529.56;5050933;28;20037;-37
2022/12/27 10:56:40;;;;;;;6.32;2.75;;;;;;;5.22;100.00;102535.41;5050457;28;20501;-37
2022/12/27 10:59:21;;;;;;;6.28;2.88;;;;;;;5.08;100.00;102511.81;5050477;28;20462;-37
2022/12/27 11:01:50;;;;;;;6.10;2.67;;;;;;;5.11;100.00;102525.75;5112838;28;20028;-37
2022/12/27 11:04:21;;;;;;;6.65;2.88;;;;;;;5.08;100.00;102527.91;5114420;28;20078;-37
2022/12/27 11:06:50;;;;;;;9.38;3.00;;;;;;;5.03;100.00;102522.16;5117350;28;20028;-37
2022/12/27 11:09:24;;;;;;;5.75;2.70;;;;;;;4.98;100.00;102524.44;5117378;28;20028;-37
2022/12/27 11:11:50;;;;;;;8.02;3.72;;;;;;;4.97;100.00;102525.44;5117886;28;20035;-37
2022/12/27 11:14:17;;;;;;;9.63;2.70;;;;;;;4.89;100.00;102505.63;5118107;28;20031;-37
2022/12/27 11:16:44;;;;;;;8.50;3.28;;;;;;;4.95;100.00;102516.72;5117153;28;20028;-37
2022/12/27 11:19:39;;;;;;;10.57;3.08;;;;;;;4.98;100.00;102508.34;5117711;28;20088;-37
2022/12/27 11:22:07;;;;;;;7.40;3.58;;;;;;;4.98;100.00;102503.00;5106530;28;20036;-37
2022/12/27 11:24:32;;;;;;;7.30;2.70;;;;;;;4.99;100.00;102505.53;5117528;28;20038;-37
2022/12/27 11:26:58;;;;;;;4.95;2.50;;;;;;;5.01;100.00;102513.41;5117144;28;20023;-37
2022/12/27 11:29:30;;;;;;;8.02;3.22;;;;;;;5.01;100.00;102508.06;5117223;28;20027;-37
2022/12/27 11:32:02;;;;;;;7.03;3.58;;;;;;;5.03;100.00;102498.88;5116900;28;20027;-37
2022/12/27 11:34:35;;;;;;;6.30;3.05;;;;;;;5.05;100.00;102502.22;5117638;28;20036;-37
2022/12/27 11:37:13;;;;;;;9.25;3.38;;;;;;;5.08;100.00;102498.41;5116797;28;20110;-37
2022/12/27 11:40:00;;;;;;;7.35;2.83;;;;;;;5.10;100.00;102496.41;5116414;28;20038;-37
2022/12/27 11:42:25;;;;;;;;;;;;;;;5.15;100.00;102492.25;5117371;28;20055;-37
2022/12/27 11:45:15;;;;;;;6.25;2.45;;;;;;;5.15;100.00;102499.47;5116976;28;20313;-37
2022/12/27 11:47:50;;;;;;;6.57;2.70;;;;;;;5.14;100.00;102495.94;5116996;28;20028;-37
2022/12/27 11:50:49;;;;;;;6.53;2.75;;;;;;;5.16;100.00;102485.88;5116901;28;20028;-37
2022/12/27 11:53:47;;;;;;;7.30;2.72;;;;;;;5.14;100.00;102479.84;5014224;28;20486;-37
2022/12/27 11:56:17;;;;;;;;;;;;;;;5.17;100.00;102478.69;5014686;28;20038;-37
2022/12/27 11:59:00;;;;;;;8.95;2.78;;;;;;;5.11;100.00;102477.47;5013928;28;19918;-37
2022/12/27 12:01:38;;;;;;;6.22;2.47;;;;;;;5.09;100.00;102476.78;5013845;28;20128;-37
2022/12/27 12:04:40;;;;;;;8.82;2.85;;;;;;;5.10;100.00;102474.94;5013648;28;20124;-37
2022/12/27 12:07:05;;;;;;;5.88;2.75;;;;;;;5.06;100.00;102477.09;5013540;28;20408;-37
2022/12/27 12:10:05;;;;;;;9.97;3.27;;;;;;;4.98;100.00;102457.41;5013903;28;20289;-37
2022/12/27 12:12:36;;;;;;;7.22;3.10;;;;;;;5.06;100.00;102469.06;5014030;28;20034;-37
2022/12/27 12:15:21;;;;;;;9.63;3.88;;;;;;;5.09;100.00;102467.91;5014118;28;20227;-37
2022/12/27 12:18:11;;;;;;;6.05;2.92;;;;;;;5.08;100.00;102456.34;5012958;28;20044;-37
2022/12/27 12:20:49;;;;;;;6.55;3.20;;;;;;;5.12;100.00;102460.41;5013929;28;20076;-37
2022/12/27 12:23:47;;;;;;;9.55;3.33;;;;;;;5.07;100.00;102448.44;5013357;28;20038;-37
2022/12/27 12:26:12;;;;;;;8.90;3.17;;;;;;;5.05;100.00;102448.59;4935804;29;20511;-37
2022/12/27 12:28:51;;;;;;;8.20;3.57;;;;;;;5.10;100.00;102456.19;4935751;29;20031;-37
2022/12/27 12:31:34;;;;;;;7.07;3.13;;;;;;;5.12;100.00;102455.03;5045920;28;20032;-37
2022/12/27 12:34:30;;;;;;;7.25;3.10;;;;;;;5.16;100.00;102450.19;5053279;28;20493;-37
2022/12/27 12:37:12;;;;;;;7.82;3.92;;;;;;;5.17;100.00;102443.81;5053184;28;20033;-37
2022/12/27 12:40:07;;;;;;;6.82;3.88;;;;;;;5.28;100.00;102443.59;5052808;28;20048;-37
2022/12/27 12:42:59;;;;;;;9.07;3.80;;;;;;;5.25;100.00;102438.53;4956903;28;20097;-37
2022/12/27 12:45:31;;;;;;;7.03;2.90;;;;;;;5.31;100.00;102443.25;4974142;28;20043;-37
2022/12/27 12:48:12;;;;;;;13.38;4.55;;;;;;;5.33;100.00;102430.53;4974017;28;20416;-37
2022/12/27 12:50:59;;;;;;;7.60;3.05;;;;;;;5.39;100.00;102424.53;4973762;28;20030;-37
2022/12/27 12:53:54;;;;;;;8.80;3.10;;;;;;;5.50;100.00;102422.59;4973753;28;20174;-37
2022/12/27 12:56:43;;;;;;;8.43;3.67;;;;;;;5.65;100.00;102416.47;4974044;28;20085;-37
2022/12/27 12:59:15;;;;;;;7.13;3.15;;;;;;;5.69;100.00;102396.34;4916114;29;20409;-37
2022/12/27 13:02:12;;;;;;;6.72;3.13;;;;;;;5.87;100.00;102398.94;4950675;28;20467;-37
2022/12/27 13:05:15;;;;;;;6.70;3.13;;;;;;;5.97;100.00;102401.53;4954082;29;20130;-37
2022/12/27 13:08:01;;;;;;;5.40;3.30;;;;;;;6.01;100.00;102402.91;4944701;29;20031;-37
2022/12/27 13:11:00;;;;;;;5.93;3.00;;;;;;;5.99;100.00;102386.09;4954702;29;20413;-37
2022/12/27 13:13:53;;;;;;;5.72;3.13;;;;;;;5.99;100.00;102387.94;4954361;29;20130;-37
2022/12/27 13:16:42;;;;;;;7.32;2.88;;;;;;;5.96;100.00;102380.22;4954228;29;20045;-37
2022/12/27 13:19:26;;;;;;;8.90;3.30;;;;;;;5.92;100.00;102375.16;4918985;29;20074;-37
2022/12/27 13:22:00;;;;;;;6.20;3.03;;;;;;;5.87;100.00;102372.09;4934609;29;20040;-37
2022/12/27 13:24:53;;;;;;;7.20;2.78;;;;;;;5.84;100.00;102377.78;4934888;29;20048;-37